createdAt,value
2022-09-23T00:02:24.311Z,3.8
2022-09-23T00:04:21.835Z,4
2022-09-23T00:06:23.995Z,3.7
2022-09-23T00:08:22.012Z,4
2022-09-23T00:10:27.133Z,3.9
2022-09-23T00:12:25.515Z,4.2
2022-09-23T00:14:22.787Z,3.8
2022-09-23T00:16:27.148Z,3.6
2022-09-23T00:18:28.432Z,3.8
2022-09-23T00:20:29.730Z,3.6
2022-09-23T00:22:25.326Z,3.3
2022-09-23T00:24:23.134Z,3.4
2022-09-23T00:26:25.490Z,3.6
2022-09-23T00:28:25.737Z,3.7
2022-09-23T00:30:26.330Z,3.6
2022-09-23T00:32:25.326Z,3.7
2022-09-23T00:34:22.764Z,3.6
2022-09-23T00:36:28.451Z,3.7
2022-09-23T00:38:26.389Z,3.4
2022-09-23T00:40:28.177Z,3.5
2022-09-23T00:42:22.538Z,3.9
2022-09-23T00:44:21.424Z,3.6
2022-09-23T00:46:27.947Z,4
2022-09-23T00:48:27.768Z,3.6
2022-09-23T00:52:24.356Z,3.3
2022-09-23T00:54:25.510Z,3.6
2022-09-23T00:56:24.841Z,3.3
2022-09-23T00:58:25.141Z,4.7
2022-09-23T01:00:26.287Z,3.6
2022-09-23T01:02:26.965Z,3.4
2022-09-23T01:04:25.397Z,3.9
2022-09-23T01:06:25.442Z,3.8
2022-09-23T01:08:26.515Z,4.3
2022-09-23T01:10:28.756Z,4.4
2022-09-23T01:14:23.698Z,4.1
2022-09-23T01:16:27.251Z,3.8
2022-09-23T01:18:24.268Z,4.6
2022-09-23T01:20:27.445Z,4.4
2022-09-23T01:22:28.412Z,4
2022-09-23T01:24:21.175Z,3.9
2022-09-23T01:26:28.062Z,4
2022-09-23T01:28:27.161Z,4.2
2022-09-23T01:30:22.119Z,3.7
2022-09-23T01:32:27.170Z,3.9
2022-09-23T01:34:23.824Z,3.6
2022-09-23T01:36:21.792Z,3.9
2022-09-23T01:38:22.368Z,3.6
2022-09-23T01:40:24.342Z,4.2
2022-09-23T01:42:26.046Z,4.1
2022-09-23T01:44:23.546Z,4.2
2022-09-23T01:46:25.070Z,4.8
2022-09-23T01:48:26.594Z,5
2022-09-23T01:50:25.617Z,4.5
2022-09-23T01:52:22.455Z,4.8
2022-09-23T01:54:23.316Z,5.2
2022-09-23T01:56:26.649Z,5
2022-09-23T01:58:22.699Z,4.9
2022-09-23T02:00:25.433Z,5.2
2022-09-23T02:02:24.531Z,4.4
2022-09-23T02:04:21.233Z,4.2
2022-09-23T02:06:25.248Z,3.9
2022-09-23T02:08:28.626Z,3.6
2022-09-23T02:10:22.379Z,4.2
2022-09-23T02:14:27.074Z,3.8
2022-09-23T02:16:28.322Z,4.2
2022-09-23T02:18:27.171Z,3.8
2022-09-23T02:20:28.345Z,4.8
2022-09-23T02:22:26.463Z,3.6
2022-09-23T02:24:27.610Z,3.8
2022-09-23T02:26:28.106Z,4.1
2022-09-23T02:28:25.874Z,4.3
2022-09-23T02:30:28.777Z,3.7
2022-09-23T02:32:28.879Z,3.4
2022-09-23T02:34:22.673Z,4
2022-09-23T02:36:25.541Z,3.7
2022-09-23T02:38:30.704Z,4.2
2022-09-23T02:40:26.389Z,3.9
2022-09-23T02:42:25.287Z,4.6
2022-09-23T02:44:23.697Z,3.9
2022-09-23T02:46:23.312Z,3.7
2022-09-23T02:48:25.351Z,4
2022-09-23T02:50:25.986Z,3.9
2022-09-23T02:52:25.398Z,4.3
2022-09-23T02:54:23.920Z,3.6
2022-09-23T02:56:22.032Z,3.7
2022-09-23T02:58:25.766Z,3.5
2022-09-23T03:00:27.633Z,4.1
2022-09-23T03:02:22.278Z,3.8
2022-09-23T03:04:26.304Z,3.9
2022-09-23T03:06:26.570Z,4.1
2022-09-23T03:08:25.793Z,3.9
2022-09-23T03:10:26.869Z,3.7
2022-09-23T03:12:27.348Z,3.9
2022-09-23T03:14:23.433Z,3.4
2022-09-23T03:16:25.639Z,3.9
2022-09-23T03:18:22.711Z,4.2
2022-09-23T03:20:22.333Z,3.8
2022-09-23T03:24:23.729Z,4
2022-09-23T03:26:29.077Z,3.5
2022-09-23T03:28:25.877Z,3.4
2022-09-23T03:30:26.627Z,4.1
2022-09-23T03:32:26.813Z,3.9
2022-09-23T03:36:24.464Z,3.5
2022-09-23T03:38:26.919Z,3.7
2022-09-23T03:40:26.621Z,4.1
2022-09-23T03:42:22.901Z,3.8
2022-09-23T03:44:23.637Z,4.4
2022-09-23T03:46:25.503Z,3.5
2022-09-23T03:48:25.632Z,4
2022-09-23T03:50:26.589Z,3.6
2022-09-23T03:52:28.823Z,3.5
2022-09-23T03:54:22.487Z,4.2
2022-09-23T03:56:28.255Z,4.3
2022-09-23T03:58:26.343Z,4.2
2022-09-23T04:00:27.369Z,3.4
2022-09-23T04:02:28.184Z,3.9
2022-09-23T04:04:23.867Z,4.1
2022-09-23T04:06:22.681Z,4
2022-09-23T04:08:25.834Z,4.1
2022-09-23T04:10:24.792Z,4.2
2022-09-23T04:12:26.084Z,3.4
2022-09-23T04:14:28.096Z,3.5
2022-09-23T04:16:28.670Z,4
2022-09-23T04:18:25.655Z,4.6
2022-09-23T04:20:25.500Z,3.5
2022-09-23T04:24:24.191Z,3.9
2022-09-23T04:26:28.295Z,4.3
2022-09-23T04:28:28.059Z,4.6
2022-09-23T04:30:27.202Z,4.3
2022-09-23T04:32:29.008Z,4
2022-09-23T04:34:26.078Z,4.1
2022-09-23T04:36:22.139Z,3.8
2022-09-23T04:38:25.116Z,4.5
2022-09-23T04:40:21.771Z,3.7
2022-09-23T04:42:23.436Z,4
2022-09-23T04:46:25.130Z,3.9
2022-09-23T04:48:24.583Z,3.6
2022-09-23T04:50:22.233Z,3.7
2022-09-23T04:52:28.905Z,4.1
2022-09-23T04:54:21.880Z,4.5
2022-09-23T04:56:22.360Z,4.2
2022-09-23T05:00:25.536Z,4
2022-09-23T05:02:24.658Z,3.6
2022-09-23T05:04:23.164Z,3.8
2022-09-23T05:10:23.457Z,4.1
2022-09-23T05:12:24.455Z,3.6
2022-09-23T05:14:23.067Z,4
2022-09-23T05:16:26.321Z,4.4
2022-09-23T05:18:26.147Z,4.3
2022-09-23T05:20:24.619Z,4.1
2022-09-23T05:22:23.652Z,4.6
2022-09-23T05:24:24.602Z,4.1
2022-09-23T05:26:26.001Z,5.7
2022-09-23T05:28:28.705Z,4.5
2022-09-23T05:30:28.896Z,4.4
2022-09-23T05:32:25.841Z,4.2
2022-09-23T05:34:24.597Z,3.9
2022-09-23T05:36:22.571Z,5.2
2022-09-23T05:38:26.332Z,4
2022-09-23T05:42:26.818Z,4.2
2022-09-23T05:44:25.915Z,4.7
2022-09-23T05:46:29.252Z,3.6
2022-09-23T05:48:24.376Z,4.1
2022-09-23T05:52:29.609Z,4.5
2022-09-23T05:54:26.690Z,4.4
2022-09-23T05:56:26.476Z,4.6
2022-09-23T05:58:26.730Z,5
2022-09-23T06:00:25.009Z,4.2
2022-09-23T06:02:25.783Z,4.4
2022-09-23T06:04:24.313Z,4
2022-09-23T06:06:25.139Z,4.1
2022-09-23T06:08:26.351Z,4.2
2022-09-23T06:10:26.179Z,4.3
2022-09-23T06:12:28.167Z,4.4
2022-09-23T06:14:29.531Z,4.6
2022-09-23T06:16:25.836Z,4.4
2022-09-23T06:18:27.975Z,5.1
2022-09-23T06:20:23.309Z,6
2022-09-23T06:22:26.800Z,4.5
2022-09-23T06:24:31.140Z,4.9
2022-09-23T06:26:26.422Z,5.5
2022-09-23T06:28:29.701Z,4.9
2022-09-23T06:30:25.746Z,5
2022-09-23T06:32:28.184Z,4.9
2022-09-23T06:36:40.989Z,5.6
2022-09-23T06:38:34.576Z,5.2
2022-09-23T06:42:27.209Z,5.6
2022-09-23T06:44:21.624Z,5
2022-09-23T06:46:25.989Z,5.5
2022-09-23T06:48:28.834Z,5
2022-09-23T06:50:26.180Z,5.6
2022-09-23T06:52:26.632Z,5
2022-09-23T06:54:27.424Z,5.7
2022-09-23T06:56:26.492Z,5.2
2022-09-23T06:58:25.374Z,5.1
2022-09-23T07:00:26.936Z,5.3
2022-09-23T07:02:28.459Z,5.6
2022-09-23T07:04:27.304Z,5.9
2022-09-23T07:06:26.733Z,5.6
2022-09-23T07:08:26.679Z,5.7
2022-09-23T07:10:22.856Z,5.9
2022-09-23T07:12:23.764Z,5.3
2022-09-23T07:14:24.300Z,5.2
2022-09-23T07:16:24.233Z,5
2022-09-23T07:18:35.622Z,5.6
2022-09-23T07:20:25.051Z,5.2
2022-09-23T07:22:28.465Z,4.5
2022-09-23T07:24:23.513Z,4.7
2022-09-23T07:26:28.514Z,4.2
2022-09-23T07:28:27.114Z,3.9
2022-09-23T07:30:26.172Z,4.3
2022-09-23T07:32:40.860Z,4.1
2022-09-23T07:34:32.701Z,3.7
2022-09-23T07:36:26.587Z,4.3
2022-09-23T07:38:25.858Z,3.7
2022-09-23T07:40:25.187Z,3.5
2022-09-23T07:42:25.564Z,3.6
2022-09-23T07:44:25.209Z,3.5
2022-09-23T07:46:29.035Z,3.7
2022-09-23T07:48:28.634Z,3.6
2022-09-23T07:50:25.753Z,3.4
2022-09-23T07:52:26.326Z,3.6
2022-09-23T07:54:23.563Z,3.8
2022-09-23T07:56:26.180Z,3.6
2022-09-23T07:58:26.786Z,3.8
2022-09-23T08:00:23.587Z,3.4
2022-09-23T08:02:23.989Z,3.5
2022-09-23T08:04:27.241Z,3.6
2022-09-23T08:06:27.380Z,4.3
2022-09-23T08:08:26.449Z,3.8
2022-09-23T08:10:28.651Z,4.1
2022-09-23T08:12:29.825Z,3.8
2022-09-23T08:14:22.527Z,3.6
2022-09-23T08:16:26.833Z,4
2022-09-23T08:18:24.271Z,4.3
2022-09-23T08:20:26.320Z,4.5
2022-09-23T08:24:25.481Z,5
2022-09-23T08:26:26.045Z,4.1
2022-09-23T08:28:23.590Z,4.5
2022-09-23T08:30:23.677Z,4.2
2022-09-23T08:32:25.028Z,4.8
2022-09-23T08:34:23.980Z,4.4
2022-09-23T08:36:30.349Z,5
2022-09-23T08:40:25.818Z,4.6
2022-09-23T08:42:27.958Z,4.8
2022-09-23T08:44:27.071Z,4.9
2022-09-23T08:46:26.192Z,5.2
2022-09-23T08:48:25.808Z,5.4
2022-09-23T08:50:29.548Z,5.6
2022-09-23T08:52:28.949Z,4.8
2022-09-23T08:54:27.757Z,5
2022-09-23T08:56:27.200Z,4.9
2022-09-23T08:58:26.456Z,5
2022-09-23T09:00:29.646Z,4.8
2022-09-23T09:02:28.905Z,4.7
2022-09-23T09:04:27.451Z,5.2
2022-09-23T09:06:27.616Z,5.1
2022-09-23T09:08:26.747Z,5.6
2022-09-23T09:10:24.034Z,5.4
2022-09-23T09:12:24.573Z,5.6
2022-09-23T09:14:25.339Z,5.7
2022-09-23T09:16:42.171Z,6.1
2022-09-23T09:18:55.518Z,5.4
2022-09-23T09:20:38.113Z,5.1
2022-09-23T09:22:30.691Z,4.7
2022-09-23T09:24:25.440Z,5.9
2022-09-23T09:26:23.787Z,4.8
2022-09-23T09:28:28.656Z,4.2
2022-09-23T09:30:26.005Z,5.2
2022-09-23T09:32:26.453Z,4.3
2022-09-23T09:34:25.815Z,4.5
2022-09-23T09:38:29.981Z,4.8
2022-09-23T09:40:24.722Z,5.5
2022-09-23T09:42:26.674Z,5.4
2022-09-23T09:44:24.380Z,5.7
2022-09-23T09:46:25.447Z,5.6
2022-09-23T09:48:27.327Z,4.9
2022-09-23T09:52:26.914Z,4.5
2022-09-23T09:54:24.824Z,3.8
2022-09-23T09:56:26.610Z,4.2
2022-09-23T10:00:24.869Z,3.7
2022-09-23T10:02:26.126Z,4.7
2022-09-23T10:04:21.985Z,4.8
2022-09-23T10:06:26.433Z,4.6
2022-09-23T10:08:25.902Z,4.5
2022-09-23T10:12:28.847Z,3.8
2022-09-23T10:14:24.589Z,3.7
2022-09-23T10:16:25.013Z,3.1
2022-09-23T10:18:23.044Z,3
2022-09-23T10:20:26.480Z,3.5
2022-09-23T10:22:29.549Z,3.2
2022-09-23T10:24:24.054Z,2.9
2022-09-23T10:26:28.545Z,3.3
2022-09-23T10:28:28.235Z,3.8
2022-09-23T10:30:25.291Z,3.4
2022-09-23T10:32:27.088Z,3.7
2022-09-23T10:34:23.336Z,3.3
2022-09-23T10:38:27.651Z,3.4
2022-09-23T10:40:27.338Z,3.6
2022-09-23T10:42:26.782Z,4.2
2022-09-23T10:44:26.150Z,3.4
2022-09-23T10:46:27.870Z,3.1
2022-09-23T10:48:28.511Z,3.5
2022-09-23T10:50:29.330Z,3.3
2022-09-23T10:52:26.442Z,3.4
2022-09-23T10:54:26.026Z,3.5
2022-09-23T10:56:27.286Z,4.1
2022-09-23T10:58:25.086Z,3.6
2022-09-23T11:00:29.217Z,3.5
2022-09-23T11:02:26.326Z,3.2
2022-09-23T11:04:27.021Z,3.5
2022-09-23T11:06:27.114Z,3.1
2022-09-23T11:08:26.856Z,2.8
2022-09-23T11:10:35.355Z,2.9
2022-09-23T11:14:28.229Z,3.1
2022-09-23T11:16:25.600Z,2.8
2022-09-23T11:18:25.465Z,2.6
2022-09-23T11:20:26.137Z,2.9
2022-09-23T11:24:29.048Z,2.8
2022-09-23T11:26:25.953Z,3.3
2022-09-23T11:28:29.002Z,2.7
2022-09-23T11:30:26.537Z,2.8
2022-09-23T11:32:25.626Z,3
2022-09-23T11:34:28.569Z,2.5
2022-09-23T11:36:24.989Z,2.8
2022-09-23T11:38:25.262Z,2.7
2022-09-23T11:40:25.993Z,3
2022-09-23T11:44:23.412Z,2.8
2022-09-23T11:48:29.820Z,2.7
2022-09-23T11:50:27.026Z,3.3
2022-09-23T11:52:25.321Z,2.4
2022-09-23T11:54:26.736Z,2.8
2022-09-23T11:56:34.752Z,2.5
2022-09-23T11:58:28.631Z,2.8
2022-09-23T12:00:25.738Z,2.5
2022-09-23T12:04:24.741Z,2.9
2022-09-23T12:06:26.581Z,2.6
2022-09-23T12:08:23.537Z,2.8
2022-09-23T12:10:22.711Z,2.6
2022-09-23T12:12:28.385Z,2.9
2022-09-23T12:14:25.976Z,3
2022-09-23T12:16:24.020Z,2.4
2022-09-23T12:18:25.142Z,2.5
2022-09-23T12:20:26.562Z,2.8
2022-09-23T12:22:24.228Z,2.7
2022-09-23T12:28:25.904Z,2.4
2022-09-23T12:32:23.916Z,2.9
2022-09-23T12:34:24.377Z,2.7
2022-09-23T12:38:28.419Z,2.9
2022-09-23T12:40:30.493Z,3
2022-09-23T12:42:30.966Z,2.6
2022-09-23T12:46:26.375Z,3.3
2022-09-23T12:48:23.671Z,3
2022-09-23T12:50:27.315Z,2.6
2022-09-23T12:52:26.888Z,2.8
2022-09-23T12:54:24.721Z,2.9
2022-09-23T12:56:26.710Z,3.3
2022-09-23T12:58:27.791Z,3
2022-09-23T13:00:32.206Z,3.2
2022-09-23T13:02:29.458Z,2.9
2022-09-23T13:04:26.657Z,3.3
2022-09-23T13:06:27.667Z,3.1
2022-09-23T13:08:29.360Z,3.3
2022-09-23T13:10:27.744Z,3
2022-09-23T13:12:26.860Z,3.1
2022-09-23T13:14:27.529Z,2.9
2022-09-23T13:16:26.693Z,3.4
2022-09-23T13:18:26.735Z,3.6
2022-09-23T13:20:26.777Z,3.1
2022-09-23T13:22:28.440Z,3.5
2022-09-23T13:24:24.472Z,3.3
2022-09-23T13:26:25.865Z,3.5
2022-09-23T13:28:27.343Z,3.8
2022-09-23T13:30:26.436Z,3.6
2022-09-23T13:32:26.741Z,3.7
2022-09-23T13:34:26.864Z,3.3
2022-09-23T13:36:24.993Z,3.9
2022-09-23T13:38:29.787Z,3.3
2022-09-23T13:40:26.541Z,3.4
2022-09-23T13:44:27.371Z,3.6
2022-09-23T13:46:28.328Z,3.8
2022-09-23T13:48:24.449Z,3.5
2022-09-23T13:50:29.559Z,3.8
2022-09-23T13:54:24.280Z,3.9
2022-09-23T13:56:29.577Z,4.4
2022-09-23T13:58:26.194Z,3.7
2022-09-23T14:00:25.548Z,3.5
2022-09-23T14:02:24.663Z,3.7
2022-09-23T14:04:28.043Z,3.6
2022-09-23T14:06:27.540Z,3.8
2022-09-23T14:08:25.420Z,3.7
2022-09-23T14:12:27.705Z,4
2022-09-23T14:14:27.292Z,3.4
2022-09-23T14:16:25.260Z,4
2022-09-23T14:18:24.109Z,3.9
2022-09-23T14:20:24.882Z,4.8
2022-09-23T14:22:29.184Z,3.5
2022-09-23T14:24:26.358Z,3.9
2022-09-23T14:26:26.105Z,4.1
2022-09-23T14:28:26.238Z,4.6
2022-09-23T14:30:27.311Z,3.5
2022-09-23T14:32:28.160Z,3.3
2022-09-23T14:34:29.125Z,3.5
2022-09-23T14:36:27.008Z,3.6
2022-09-23T14:40:27.504Z,3.5
2022-09-23T14:42:29.982Z,4.2
2022-09-23T14:44:24.694Z,3.9
2022-09-23T14:46:25.613Z,4.1
2022-09-23T14:48:28.766Z,4.2
2022-09-23T14:50:23.107Z,4.9
2022-09-23T14:52:26.294Z,4.7
2022-09-23T14:54:23.167Z,4.4
2022-09-23T14:56:27.679Z,3.4
2022-09-23T14:58:25.910Z,4.5
2022-09-23T15:00:25.658Z,3.8
2022-09-23T15:02:26.402Z,4.3
2022-09-23T15:04:25.734Z,5.6
2022-09-23T15:06:26.644Z,4.6
2022-09-23T15:08:23.957Z,4.8
2022-09-23T15:10:24.669Z,4.5
2022-09-23T15:12:26.603Z,4.2
2022-09-23T15:16:31.246Z,4.2
2022-09-23T15:18:25.883Z,4.3
2022-09-23T15:20:28.832Z,4.4
2022-09-23T15:22:24.780Z,3.9
2022-09-23T15:24:22.997Z,3.4
2022-09-23T15:26:27.069Z,4.4
2022-09-23T15:28:29.474Z,4.3
2022-09-23T15:30:28.489Z,4.7
2022-09-23T15:32:27.489Z,3.6
2022-09-23T15:34:24.302Z,4.2
2022-09-23T15:36:27.679Z,4.6
2022-09-23T15:38:29.308Z,4.7
2022-09-23T15:40:27.149Z,5
2022-09-23T15:42:24.878Z,4.3
2022-09-23T15:44:22.227Z,3.5
2022-09-23T15:46:24.990Z,3.7
2022-09-23T15:48:25.792Z,3.6
2022-09-23T15:50:24.002Z,3.7
2022-09-23T15:52:27.815Z,3.9
2022-09-23T15:54:24.055Z,3.3
2022-09-23T15:58:22.685Z,3
2022-09-23T16:00:26.515Z,3.2
2022-09-23T16:02:25.248Z,3.1
2022-09-23T16:04:26.159Z,3.3
2022-09-23T16:06:26.035Z,3
2022-09-23T16:08:27.365Z,3.3
2022-09-23T16:10:28.645Z,3.2
2022-09-23T16:12:26.575Z,3.3
2022-09-23T16:14:26.314Z,3.2
2022-09-23T16:16:26.141Z,2.8
2022-09-23T16:18:25.918Z,3.1
2022-09-23T16:20:26.047Z,3.2
2022-09-23T16:22:25.684Z,3.1
2022-09-23T16:24:28.291Z,4.2
2022-09-23T16:26:24.938Z,3.3
2022-09-23T16:28:25.925Z,3.8
2022-09-23T16:30:26.200Z,3.2
2022-09-23T16:32:26.247Z,3.8
2022-09-23T16:34:25.948Z,4.2
2022-09-23T16:36:26.537Z,4.1
2022-09-23T16:38:26.959Z,4.5
2022-09-23T16:40:27.484Z,4.7
2022-09-23T16:42:29.275Z,4
2022-09-23T16:44:24.462Z,4.8
2022-09-23T16:46:23.213Z,4.1
2022-09-23T16:48:23.937Z,4.7
2022-09-23T16:50:25.205Z,4.3
2022-09-23T16:52:26.678Z,4.5
2022-09-23T16:54:23.769Z,4
2022-09-23T16:56:28.412Z,3.6
2022-09-23T16:58:28.720Z,4.1
2022-09-23T17:00:26.268Z,3.6
2022-09-23T17:02:27.093Z,3.2
2022-09-23T17:04:27.288Z,3.8
2022-09-23T17:06:27.538Z,4.1
2022-09-23T17:08:27.533Z,3.9
2022-09-23T17:10:26.088Z,4.1
2022-09-23T17:12:26.537Z,4.5
2022-09-23T17:14:22.228Z,4.2
2022-09-23T17:16:26.264Z,3.8
2022-09-23T17:18:26.435Z,3.6
2022-09-23T17:20:25.798Z,4
2022-09-23T17:22:26.878Z,3.8
2022-09-23T17:24:23.671Z,3.5
2022-09-23T17:26:27.271Z,3.9
2022-09-23T17:28:23.844Z,4.6
2022-09-23T17:30:24.302Z,5
2022-09-23T17:32:25.851Z,4
2022-09-23T17:34:23.630Z,5.4
2022-09-23T17:36:22.276Z,4.9
2022-09-23T17:38:26.719Z,5.2
2022-09-23T17:40:25.608Z,5.1
2022-09-23T17:42:29.118Z,5.7
2022-09-23T17:44:29.785Z,5.6
2022-09-23T17:46:25.650Z,6.1
2022-09-23T17:48:27.038Z,5.6
2022-09-23T17:50:25.842Z,5.2
2022-09-23T17:52:24.787Z,4.8
2022-09-23T17:54:23.340Z,5.8
2022-09-23T17:56:27.427Z,5.4
2022-09-23T17:58:22.343Z,5.1
2022-09-23T18:00:23.626Z,5.3
2022-09-23T18:02:28.267Z,5.1
2022-09-23T18:06:25.528Z,5.6
2022-09-23T18:08:22.574Z,4.9
2022-09-23T18:10:26.650Z,5.3
2022-09-23T18:12:26.337Z,5.6
2022-09-23T18:14:23.687Z,6.2
2022-09-23T18:18:25.885Z,5.6
2022-09-23T18:20:25.764Z,5.4
2022-09-23T18:22:28.843Z,5.5
2022-09-23T18:24:33.143Z,5.9
2022-09-23T18:26:22.236Z,5.3
2022-09-23T18:28:23.441Z,5.6
2022-09-23T18:30:22.298Z,6
2022-09-23T18:32:25.331Z,7.2
2022-09-23T18:34:24.303Z,7.7
2022-09-23T18:36:27.325Z,7.3
2022-09-23T18:38:25.818Z,7.9
2022-09-23T18:40:24.903Z,7.5
2022-09-23T18:42:25.236Z,8.8
2022-09-23T18:44:21.568Z,8
2022-09-23T18:46:26.428Z,8.3
2022-09-23T18:48:25.988Z,7.2
2022-09-23T18:50:26.258Z,5.7
2022-09-23T18:52:27.177Z,6.1
2022-09-23T18:56:25.020Z,5.5
2022-09-23T18:58:25.062Z,6
2022-09-23T19:00:29.053Z,5.5
2022-09-23T19:02:25.736Z,5.2
2022-09-23T19:04:23.976Z,5.6
2022-09-23T19:06:24.951Z,5.8
2022-09-23T19:08:26.296Z,5.3
2022-09-23T19:10:25.427Z,4.3
2022-09-23T19:12:24.778Z,5.2
2022-09-23T19:14:25.739Z,5.3
2022-09-23T19:16:26.120Z,5.6
2022-09-23T19:18:22.405Z,4.7
2022-09-23T19:20:24.856Z,5.2
2022-09-23T19:22:25.485Z,5.6
2022-09-23T19:24:22.317Z,4.8
2022-09-23T19:26:24.876Z,5.3
2022-09-23T19:28:27.196Z,5
2022-09-23T19:30:26.220Z,5.1
2022-09-23T19:32:28.130Z,4.9
2022-09-23T19:34:24.557Z,5.1
2022-09-23T19:36:27.081Z,4.8
2022-09-23T19:38:26.073Z,5.5
2022-09-23T19:40:27.748Z,4.8
2022-09-23T19:42:28.105Z,5.5
2022-09-23T19:44:24.140Z,7
2022-09-23T19:46:22.218Z,6.6
2022-09-23T19:48:22.740Z,5.7
2022-09-23T19:50:25.375Z,6.2
2022-09-23T19:52:28.611Z,5.5
2022-09-23T19:54:25.439Z,4.9
2022-09-23T19:58:28.880Z,5.6
2022-09-23T20:00:25.150Z,5.8
2022-09-23T20:02:22.872Z,5.5
2022-09-23T20:04:23.639Z,5.1
2022-09-23T20:06:24.519Z,6.3
2022-09-23T20:08:26.476Z,6.6
2022-09-23T20:10:27.965Z,5.9
2022-09-23T20:16:23.007Z,5.6
2022-09-23T20:18:25.920Z,5.4
2022-09-23T20:20:24.845Z,5.5
2022-09-23T20:22:22.477Z,6.1
2022-09-23T20:24:23.572Z,5.9
2022-09-23T20:26:22.372Z,6.7
2022-09-23T20:30:25.720Z,5.6
2022-09-23T20:32:26.812Z,6.1
2022-09-23T20:34:23.127Z,6
2022-09-23T20:36:22.737Z,5.6
2022-09-23T20:38:21.473Z,6
2022-09-23T20:40:24.915Z,6.5
2022-09-23T20:42:28.003Z,5.6
2022-09-23T20:44:20.842Z,6.8
2022-09-23T20:46:24.025Z,7.3
2022-09-23T20:48:23.672Z,5.8
2022-09-23T20:50:22.841Z,6.7
2022-09-23T20:52:26.852Z,5.5
2022-09-23T20:54:24.601Z,6.4
2022-09-23T20:56:26.058Z,6.2
2022-09-23T20:58:27.525Z,6.3
2022-09-23T21:00:28.880Z,6.4
2022-09-23T21:02:26.919Z,6.7
2022-09-23T21:04:26.852Z,5.7
2022-09-23T21:06:25.886Z,6.1
2022-09-23T21:08:25.619Z,6.5
2022-09-23T21:10:23.827Z,5.9
2022-09-23T21:12:25.528Z,6.7
2022-09-23T21:14:23.413Z,6.1
2022-09-23T21:16:28.900Z,5.7
2022-09-23T21:18:25.461Z,5.8
2022-09-23T21:20:27.541Z,6.6
2022-09-23T21:22:26.901Z,6.3
2022-09-23T21:24:53.248Z,5.1
2022-09-23T21:27:02.132Z,6.3
2022-09-23T21:28:35.919Z,5.9
2022-09-23T21:30:24.701Z,6.1
2022-09-23T21:32:28.020Z,5.7
2022-09-23T21:36:27.545Z,5.5
2022-09-23T21:38:25.542Z,6.1
2022-09-23T21:40:22.539Z,5.3
2022-09-23T21:44:23.450Z,6.1
2022-09-23T21:46:25.789Z,4.9
2022-09-23T21:48:25.479Z,5
2022-09-23T21:50:26.872Z,5.2
2022-09-23T21:52:24.531Z,6.5
2022-09-23T21:54:24.845Z,5.2
2022-09-23T21:56:24.602Z,5.5
2022-09-23T21:58:22.321Z,5.1
2022-09-23T22:02:22.459Z,5.6
2022-09-23T22:06:22.548Z,5.7
2022-09-23T22:08:24.632Z,5.3
2022-09-23T22:10:22.865Z,4.7
2022-09-23T22:12:23.917Z,5.6
2022-09-23T22:14:23.368Z,5.9
2022-09-23T22:16:22.570Z,5.2
2022-09-23T22:18:25.793Z,5.1
2022-09-23T22:20:25.856Z,4.7
2022-09-23T22:22:24.836Z,5.8
2022-09-23T22:26:25.706Z,5.6
2022-09-23T22:28:25.511Z,5.7
2022-09-23T22:30:25.382Z,4.6
2022-09-23T22:32:26.480Z,5.6
2022-09-23T22:34:48.007Z,5.4
2022-09-23T22:36:26.587Z,5.5
2022-09-23T22:38:21.817Z,5.4
2022-09-23T22:40:25.472Z,5.2
2022-09-23T22:42:23.136Z,5
2022-09-23T22:44:23.377Z,5.3
2022-09-23T22:46:26.035Z,5.4
2022-09-23T22:48:26.921Z,5
2022-09-23T22:50:24.593Z,5.3
2022-09-23T22:52:25.265Z,5.6
2022-09-23T22:54:21.409Z,5.2
2022-09-23T22:56:22.579Z,5.4
2022-09-23T22:58:32.108Z,4.9
2022-09-23T23:02:26.571Z,4.8
2022-09-23T23:04:21.069Z,5.6
2022-09-23T23:06:27.788Z,4.9
2022-09-23T23:08:26.929Z,5.4
2022-09-23T23:10:25.989Z,5.7
2022-09-23T23:12:28.249Z,4.7
2022-09-23T23:14:22.559Z,6
2022-09-23T23:16:25.417Z,5.2
2022-09-23T23:18:28.652Z,5.9
2022-09-23T23:22:25.191Z,5.6
2022-09-23T23:24:22.346Z,5.5
2022-09-23T23:26:29.390Z,5.1
2022-09-23T23:28:25.549Z,5.8
2022-09-23T23:30:26.367Z,4.8
2022-09-23T23:32:26.400Z,5.4
2022-09-23T23:34:21.799Z,5.3
2022-09-23T23:36:25.667Z,5.9
2022-09-23T23:38:21.568Z,5.1
2022-09-23T23:40:25.834Z,5.5
2022-09-23T23:42:23.621Z,5
2022-09-23T23:44:22.853Z,4.6
2022-09-23T23:46:22.727Z,5
2022-09-23T23:48:22.939Z,5.2
2022-09-23T23:50:25.320Z,5.3
2022-09-23T23:52:22.279Z,4.7
2022-09-23T23:54:23.029Z,5.3
2022-09-23T23:56:22.418Z,4.7
